sensor_id;sensor_type;location;lat;lon;timestamp;temperature;humidity
5578;DHT22;2811;51.900;10.734;2022-10-23T00:01:28;11.30;99.90
5578;DHT22;2811;51.900;10.734;2022-10-23T00:03:57;11.20;99.90
5578;DHT22;2811;51.900;10.734;2022-10-23T00:06:24;11.40;99.90
5578;DHT22;2811;51.900;10.734;2022-10-23T00:08:51;11.40;99.90
5578;DHT22;2811;51.900;10.734;2022-10-23T00:11:20;11.50;99.90
5578;DHT22;2811;51.900;10.734;2022-10-23T00:13:48;11.60;99.90
5578;DHT22;2811;51.900;10.734;2022-10-23T00:16:16;11.60;99.90
5578;DHT22;2811;51.900;10.734;2022-10-23T00:18:43;11.60;99.90
5578;DHT22;2811;51.900;10.734;2022-10-23T00:21:11;11.70;99.90
5578;DHT22;2811;51.900;10.734;2022-10-23T00:23:38;11.70;99.90
5578;DHT22;2811;51.900;10.734;2022-10-23T00:26:06;11.70;99.90
5578;DHT22;2811;51.900;10.734;2022-10-23T00:28:35;11.70;99.90
5578;DHT22;2811;51.900;10.734;2022-10-23T00:31:04;11.60;99.90
5578;DHT22;2811;51.900;10.734;2022-10-23T00:33:32;11.70;99.90
5578;DHT22;2811;51.900;10.734;2022-10-23T00:35:59;11.70;99.90
5578;DHT22;2811;51.900;10.734;2022-10-23T00:38:25;11.80;99.90
5578;DHT22;2811;51.900;10.734;2022-10-23T00:40:52;11.70;99.90
5578;DHT22;2811;51.900;10.734;2022-10-23T00:43:21;11.70;99.90
5578;DHT22;2811;51.900;10.734;2022-10-23T00:45:48;11.80;99.90
5578;DHT22;2811;51.900;10.734;2022-10-23T00:48:15;11.80;99.90
5578;DHT22;2811;51.900;10.734;2022-10-23T00:50:44;11.90;99.90
5578;DHT22;2811;51.900;10.734;2022-10-23T00:53:12;11.90;99.90
5578;DHT22;2811;51.900;10.734;2022-10-23T00:55:40;12.00;99.90
5578;DHT22;2811;51.900;10.734;2022-10-23T00:58:10;11.90;99.90
5578;DHT22;2811;51.900;10.734;2022-10-23T01:00:42;11.90;99.90
5578;DHT22;2811;51.900;10.734;2022-10-23T01:03:10;11.90;99.90
5578;DHT22;2811;51.900;10.734;2022-10-23T01:05:43;11.90;99.90
5578;DHT22;2811;51.900;10.734;2022-10-23T01:08:17;12.00;99.90
5578;DHT22;2811;51.900;10.734;2022-10-23T01:10:53;12.00;99.90
5578;DHT22;2811;51.900;10.734;2022-10-23T01:13:29;12.00;99.90
5578;DHT22;2811;51.900;10.734;2022-10-23T01:16:05;11.90;99.90
5578;DHT22;2811;51.900;10.734;2022-10-23T01:18:38;11.80;99.90
5578;DHT22;2811;51.900;10.734;2022-10-23T01:21:09;11.80;99.90
5578;DHT22;2811;51.900;10.734;2022-10-23T01:23:52;11.70;99.90
5578;DHT22;2811;51.900;10.734;2022-10-23T01:26:30;11.70;99.90
5578;DHT22;2811;51.900;10.734;2022-10-23T01:29:04;11.70;99.90
5578;DHT22;2811;51.900;10.734;2022-10-23T01:31:37;11.70;99.90
5578;DHT22;2811;51.900;10.734;2022-10-23T01:34:07;11.60;99.90
5578;DHT22;2811;51.900;10.734;2022-10-23T01:36:37;11.60;99.90
5578;DHT22;2811;51.900;10.734;2022-10-23T01:39:07;11.50;99.90
5578;DHT22;2811;51.900;10.734;2022-10-23T01:41:40;11.60;99.90
5578;DHT22;2811;51.900;10.734;2022-10-23T01:44:14;11.60;99.90
5578;DHT22;2811;51.900;10.734;2022-10-23T01:46:43;11.60;99.90
5578;DHT22;2811;51.900;10.734;2022-10-23T01:49:13;11.50;99.90
5578;DHT22;2811;51.900;10.734;2022-10-23T01:51:46;11.50;99.90
5578;DHT22;2811;51.900;10.734;2022-10-23T01:54:16;11.40;99.90
5578;DHT22;2811;51.900;10.734;2022-10-23T01:56:46;11.40;99.90
5578;DHT22;2811;51.900;10.734;2022-10-23T01:59:17;11.30;99.90
5578;DHT22;2811;51.900;10.734;2022-10-23T02:01:47;11.40;99.90
5578;DHT22;2811;51.900;10.734;2022-10-23T02:04:20;11.30;99.90
5578;DHT22;2811;51.900;10.734;2022-10-23T02:06:47;11.30;99.90
5578;DHT22;2811;51.900;10.734;2022-10-23T02:09:14;11.30;99.90
5578;DHT22;2811;51.900;10.734;2022-10-23T02:11:49;11.20;99.90
5578;DHT22;2811;51.900;10.734;2022-10-23T02:14:21;11.20;99.90
5578;DHT22;2811;51.900;10.734;2022-10-23T02:16:51;11.10;99.90
5578;DHT22;2811;51.900;10.734;2022-10-23T02:19:23;11.10;99.90
5578;DHT22;2811;51.900;10.734;2022-10-23T02:21:53;11.10;99.90
5578;DHT22;2811;51.900;10.734;2022-10-23T02:24:27;10.60;99.90
5578;DHT22;2811;51.900;10.734;2022-10-23T02:26:58;11.00;99.90
5578;DHT22;2811;51.900;10.734;2022-10-23T02:29:30;10.90;99.90
5578;DHT22;2811;51.900;10.734;2022-10-23T02:31:59;10.80;99.90
5578;DHT22;2811;51.900;10.734;2022-10-23T02:34:26;10.70;99.90
5578;DHT22;2811;51.900;10.734;2022-10-23T02:36:53;10.70;99.90
5578;DHT22;2811;51.900;10.734;2022-10-23T02:39:21;10.60;99.90
5578;DHT22;2811;51.900;10.734;2022-10-23T02:41:52;10.60;99.90
5578;DHT22;2811;51.900;10.734;2022-10-23T02:44:31;10.60;99.90
5578;DHT22;2811;51.900;10.734;2022-10-23T02:47:07;10.70;99.90
5578;DHT22;2811;51.900;10.734;2022-10-23T02:49:40;10.80;99.90
5578;DHT22;2811;51.900;10.734;2022-10-23T02:52:13;10.80;99.90
5578;DHT22;2811;51.900;10.734;2022-10-23T02:54:50;10.80;99.90
5578;DHT22;2811;51.900;10.734;2022-10-23T02:57:25;10.80;99.90
5578;DHT22;2811;51.900;10.734;2022-10-23T03:00:00;10.90;99.90
5578;DHT22;2811;51.900;10.734;2022-10-23T03:02:32;10.80;99.90
5578;DHT22;2811;51.900;10.734;2022-10-23T03:05:02;10.70;99.90
5578;DHT22;2811;51.900;10.734;2022-10-23T03:07:30;10.70;99.90
5578;DHT22;2811;51.900;10.734;2022-10-23T03:09:56;10.60;99.90
5578;DHT22;2811;51.900;10.734;2022-10-23T03:12:23;10.50;99.90
5578;DHT22;2811;51.900;10.734;2022-10-23T03:14:50;10.30;99.90
5578;DHT22;2811;51.900;10.734;2022-10-23T03:17:18;10.40;99.90
5578;DHT22;2811;51.900;10.734;2022-10-23T03:19:45;10.40;99.90
5578;DHT22;2811;51.900;10.734;2022-10-23T03:22:11;10.30;99.90
5578;DHT22;2811;51.900;10.734;2022-10-23T03:24:38;10.30;99.90
5578;DHT22;2811;51.900;10.734;2022-10-23T03:27:05;10.30;99.90
5578;DHT22;2811;51.900;10.734;2022-10-23T03:29:32;10.20;99.90
5578;DHT22;2811;51.900;10.734;2022-10-23T03:31:58;10.30;99.90
5578;DHT22;2811;51.900;10.734;2022-10-23T03:34:27;10.20;99.90
5578;DHT22;2811;51.900;10.734;2022-10-23T03:36:53;10.30;99.90
5578;DHT22;2811;51.900;10.734;2022-10-23T03:39:20;10.20;99.90
5578;DHT22;2811;51.900;10.734;2022-10-23T03:41:47;10.10;99.90
5578;DHT22;2811;51.900;10.734;2022-10-23T03:44:14;10.10;99.90
5578;DHT22;2811;51.900;10.734;2022-10-23T03:46:41;10.10;99.90
5578;DHT22;2811;51.900;10.734;2022-10-23T03:49:08;10.10;99.90
5578;DHT22;2811;51.900;10.734;2022-10-23T03:51:36;10.10;99.90
5578;DHT22;2811;51.900;10.734;2022-10-23T03:54:06;10.00;99.90
5578;DHT22;2811;51.900;10.734;2022-10-23T03:56:33;10.00;99.90
5578;DHT22;2811;51.900;10.734;2022-10-23T03:58:59;9.90;99.90
5578;DHT22;2811;51.900;10.734;2022-10-23T04:01:26;9.90;99.90
5578;DHT22;2811;51.900;10.734;2022-10-23T04:03:53;9.80;99.90
5578;DHT22;2811;51.900;10.734;2022-10-23T04:06:20;9.80;99.90
5578;DHT22;2811;51.900;10.734;2022-10-23T04:08:48;9.90;99.90
5578;DHT22;2811;51.900;10.734;2022-10-23T04:11:14;9.70;99.90
5578;DHT22;2811;51.900;10.734;2022-10-23T04:13:41;9.50;99.90
5578;DHT22;2811;51.900;10.734;2022-10-23T04:16:08;9.50;99.90
5578;DHT22;2811;51.900;10.734;2022-10-23T04:18:35;9.50;99.90
5578;DHT22;2811;51.900;10.734;2022-10-23T04:21:01;9.50;99.90
5578;DHT22;2811;51.900;10.734;2022-10-23T04:23:28;9.60;99.90
5578;DHT22;2811;51.900;10.734;2022-10-23T04:25:56;9.60;99.90
5578;DHT22;2811;51.900;10.734;2022-10-23T04:28:23;9.50;99.90
5578;DHT22;2811;51.900;10.734;2022-10-23T04:30:50;9.50;99.90
5578;DHT22;2811;51.900;10.734;2022-10-23T04:33:17;9.50;99.90
5578;DHT22;2811;51.900;10.734;2022-10-23T04:35:44;9.60;99.90
5578;DHT22;2811;51.900;10.734;2022-10-23T04:38:11;9.60;99.90
5578;DHT22;2811;51.900;10.734;2022-10-23T04:40:38;9.50;99.90
5578;DHT22;2811;51.900;10.734;2022-10-23T04:43:06;9.50;99.90
5578;DHT22;2811;51.900;10.734;2022-10-23T04:45:33;9.60;99.90
5578;DHT22;2811;51.900;10.734;2022-10-23T04:47:59;9.70;99.90
5578;DHT22;2811;51.900;10.734;2022-10-23T04:50:26;9.80;99.90
5578;DHT22;2811;51.900;10.734;2022-10-23T04:52:53;10.00;99.90
5578;DHT22;2811;51.900;10.734;2022-10-23T04:55:20;9.70;99.90
5578;DHT22;2811;51.900;10.734;2022-10-23T04:57:47;9.80;99.90
5578;DHT22;2811;51.900;10.734;2022-10-23T05:00:16;9.70;99.90
5578;DHT22;2811;51.900;10.734;2022-10-23T05:02:43;9.70;99.90
5578;DHT22;2811;51.900;10.734;2022-10-23T05:05:10;9.70;99.90
5578;DHT22;2811;51.900;10.734;2022-10-23T05:07:38;9.70;99.90
5578;DHT22;2811;51.900;10.734;2022-10-23T05:10:06;9.70;99.90
5578;DHT22;2811;51.900;10.734;2022-10-23T05:12:33;9.70;99.90
5578;DHT22;2811;51.900;10.734;2022-10-23T05:14:59;9.60;99.90
5578;DHT22;2811;51.900;10.734;2022-10-23T05:17:32;9.60;99.90
5578;DHT22;2811;51.900;10.734;2022-10-23T05:20:03;9.60;99.90
5578;DHT22;2811;51.900;10.734;2022-10-23T05:22:34;9.70;99.90
5578;DHT22;2811;51.900;10.734;2022-10-23T05:25:04;9.80;99.90
5578;DHT22;2811;51.900;10.734;2022-10-23T05:27:31;9.80;99.90
5578;DHT22;2811;51.900;10.734;2022-10-23T05:29:58;9.70;99.90
5578;DHT22;2811;51.900;10.734;2022-10-23T05:32:30;9.70;99.90
5578;DHT22;2811;51.900;10.734;2022-10-23T05:34:58;9.90;99.90
5578;DHT22;2811;51.900;10.734;2022-10-23T05:37:26;9.80;99.90
5578;DHT22;2811;51.900;10.734;2022-10-23T05:39:53;9.70;99.90
5578;DHT22;2811;51.900;10.734;2022-10-23T05:42:20;9.70;99.90
5578;DHT22;2811;51.900;10.734;2022-10-23T05:44:47;9.70;99.90
5578;DHT22;2811;51.900;10.734;2022-10-23T05:47:14;9.60;99.90
5578;DHT22;2811;51.900;10.734;2022-10-23T05:49:42;9.50;99.90
5578;DHT22;2811;51.900;10.734;2022-10-23T05:52:09;9.40;99.90
5578;DHT22;2811;51.900;10.734;2022-10-23T05:54:36;9.50;99.90
5578;DHT22;2811;51.900;10.734;2022-10-23T05:57:03;9.50;99.90
5578;DHT22;2811;51.900;10.734;2022-10-23T05:59:30;9.50;99.90
5578;DHT22;2811;51.900;10.734;2022-10-23T06:01:56;9.50;99.90
5578;DHT22;2811;51.900;10.734;2022-10-23T06:04:23;9.50;99.90
5578;DHT22;2811;51.900;10.734;2022-10-23T06:06:52;9.60;99.90
5578;DHT22;2811;51.900;10.734;2022-10-23T06:09:18;9.60;99.90
5578;DHT22;2811;51.900;10.734;2022-10-23T06:11:45;9.60;99.90
5578;DHT22;2811;51.900;10.734;2022-10-23T06:14:12;9.40;99.90
5578;DHT22;2811;51.900;10.734;2022-10-23T06:16:39;9.50;99.90
5578;DHT22;2811;51.900;10.734;2022-10-23T06:19:08;9.30;99.90
5578;DHT22;2811;51.900;10.734;2022-10-23T06:21:35;9.40;99.90
5578;DHT22;2811;51.900;10.734;2022-10-23T06:24:04;9.50;99.90
5578;DHT22;2811;51.900;10.734;2022-10-23T06:26:31;9.50;99.90
5578;DHT22;2811;51.900;10.734;2022-10-23T06:28:58;9.60;99.90
5578;DHT22;2811;51.900;10.734;2022-10-23T06:31:25;9.90;99.90
5578;DHT22;2811;51.900;10.734;2022-10-23T06:33:53;9.50;99.90
5578;DHT22;2811;51.900;10.734;2022-10-23T06:36:20;9.50;99.90
5578;DHT22;2811;51.900;10.734;2022-10-23T06:38:47;9.60;99.90
5578;DHT22;2811;51.900;10.734;2022-10-23T06:41:18;9.60;99.90
5578;DHT22;2811;51.900;10.734;2022-10-23T06:43:47;9.80;99.90
5578;DHT22;2811;51.900;10.734;2022-10-23T06:46:14;9.80;99.90
5578;DHT22;2811;51.900;10.734;2022-10-23T06:48:41;9.90;99.90
5578;DHT22;2811;51.900;10.734;2022-10-23T06:51:09;9.90;99.90
5578;DHT22;2811;51.900;10.734;2022-10-23T06:53:37;9.90;99.90
5578;DHT22;2811;51.900;10.734;2022-10-23T06:56:05;9.80;99.90
5578;DHT22;2811;51.900;10.734;2022-10-23T06:58:35;10.00;99.90
5578;DHT22;2811;51.900;10.734;2022-10-23T07:01:03;10.10;99.90
5578;DHT22;2811;51.900;10.734;2022-10-23T07:03:30;10.10;99.90
5578;DHT22;2811;51.900;10.734;2022-10-23T07:05:59;10.30;99.90
5578;DHT22;2811;51.900;10.734;2022-10-23T07:08:26;10.40;99.90
5578;DHT22;2811;51.900;10.734;2022-10-23T07:10:53;10.50;99.90
5578;DHT22;2811;51.900;10.734;2022-10-23T07:13:19;10.50;99.90
5578;DHT22;2811;51.900;10.734;2022-10-23T07:15:48;10.70;99.90
5578;DHT22;2811;51.900;10.734;2022-10-23T07:18:14;10.80;99.90
5578;DHT22;2811;51.900;10.734;2022-10-23T07:20:42;11.00;99.90
5578;DHT22;2811;51.900;10.734;2022-10-23T07:23:10;11.20;99.90
5578;DHT22;2811;51.900;10.734;2022-10-23T07:25:37;11.40;99.90
5578;DHT22;2811;51.900;10.734;2022-10-23T07:28:04;11.40;99.90
5578;DHT22;2811;51.900;10.734;2022-10-23T07:30:31;11.60;99.90
5578;DHT22;2811;51.900;10.734;2022-10-23T07:32:59;11.70;99.90
5578;DHT22;2811;51.900;10.734;2022-10-23T07:35:25;11.70;99.90
5578;DHT22;2811;51.900;10.734;2022-10-23T07:37:52;11.80;99.90
5578;DHT22;2811;51.900;10.734;2022-10-23T07:40:19;11.80;99.90
5578;DHT22;2811;51.900;10.734;2022-10-23T07:42:46;12.00;99.90
5578;DHT22;2811;51.900;10.734;2022-10-23T07:45:13;12.10;99.90
5578;DHT22;2811;51.900;10.734;2022-10-23T07:47:39;12.20;99.90
5578;DHT22;2811;51.900;10.734;2022-10-23T07:50:08;12.50;99.90
5578;DHT22;2811;51.900;10.734;2022-10-23T07:52:35;12.80;99.90
5578;DHT22;2811;51.900;10.734;2022-10-23T07:55:02;12.90;99.90
5578;DHT22;2811;51.900;10.734;2022-10-23T07:57:29;13.00;99.90
5578;DHT22;2811;51.900;10.734;2022-10-23T07:59:56;13.10;99.90
5578;DHT22;2811;51.900;10.734;2022-10-23T08:02:22;13.00;99.90
5578;DHT22;2811;51.900;10.734;2022-10-23T08:04:49;13.10;99.90
5578;DHT22;2811;51.900;10.734;2022-10-23T08:07:18;13.30;99.90
5578;DHT22;2811;51.900;10.734;2022-10-23T08:09:44;13.50;99.90
5578;DHT22;2811;51.900;10.734;2022-10-23T08:12:11;13.50;99.90
5578;DHT22;2811;51.900;10.734;2022-10-23T08:14:38;13.70;99.90
5578;DHT22;2811;51.900;10.734;2022-10-23T08:17:05;13.60;99.90
5578;DHT22;2811;51.900;10.734;2022-10-23T08:19:34;13.80;99.90
5578;DHT22;2811;51.900;10.734;2022-10-23T08:22:01;13.90;99.90
5578;DHT22;2811;51.900;10.734;2022-10-23T08:24:29;13.90;99.90
5578;DHT22;2811;51.900;10.734;2022-10-23T08:26:56;14.10;99.90
5578;DHT22;2811;51.900;10.734;2022-10-23T08:29:23;14.30;99.90
5578;DHT22;2811;51.900;10.734;2022-10-23T08:31:52;14.30;99.90
5578;DHT22;2811;51.900;10.734;2022-10-23T08:34:20;14.50;99.90
5578;DHT22;2811;51.900;10.734;2022-10-23T08:36:47;14.60;99.90
5578;DHT22;2811;51.900;10.734;2022-10-23T08:39:14;14.60;99.90
5578;DHT22;2811;51.900;10.734;2022-10-23T08:41:46;14.80;99.90
5578;DHT22;2811;51.900;10.734;2022-10-23T08:44:19;14.80;99.90
5578;DHT22;2811;51.900;10.734;2022-10-23T08:46:49;15.00;99.90
5578;DHT22;2811;51.900;10.734;2022-10-23T08:49:36;14.90;99.90
5578;DHT22;2811;51.900;10.734;2022-10-23T08:52:14;15.10;99.90
5578;DHT22;2811;51.900;10.734;2022-10-23T08:54:55;15.30;99.90
5578;DHT22;2811;51.900;10.734;2022-10-23T08:57:29;15.50;99.90
5578;DHT22;2811;51.900;10.734;2022-10-23T09:00:00;15.70;99.90
5578;DHT22;2811;51.900;10.734;2022-10-23T09:02:35;15.90;99.90
5578;DHT22;2811;51.900;10.734;2022-10-23T09:05:03;16.10;99.90
5578;DHT22;2811;51.900;10.734;2022-10-23T09:07:37;16.30;99.90
5578;DHT22;2811;51.900;10.734;2022-10-23T09:10:16;16.50;99.90
5578;DHT22;2811;51.900;10.734;2022-10-23T09:12:46;16.60;99.90
5578;DHT22;2811;51.900;10.734;2022-10-23T09:15:19;17.00;99.90
5578;DHT22;2811;51.900;10.734;2022-10-23T09:17:54;17.10;99.90
5578;DHT22;2811;51.900;10.734;2022-10-23T09:20:23;17.30;99.90
5578;DHT22;2811;51.900;10.734;2022-10-23T09:22:55;17.40;99.90
5578;DHT22;2811;51.900;10.734;2022-10-23T09:25:24;17.50;99.90
5578;DHT22;2811;51.900;10.734;2022-10-23T09:27:55;17.60;99.90
5578;DHT22;2811;51.900;10.734;2022-10-23T09:30:30;17.80;99.90
5578;DHT22;2811;51.900;10.734;2022-10-23T09:32:58;17.90;99.90
5578;DHT22;2811;51.900;10.734;2022-10-23T09:35:27;18.20;99.90
5578;DHT22;2811;51.900;10.734;2022-10-23T09:37:55;18.40;99.90
5578;DHT22;2811;51.900;10.734;2022-10-23T09:40:28;18.20;99.90
5578;DHT22;2811;51.900;10.734;2022-10-23T09:43:00;18.30;99.90
5578;DHT22;2811;51.900;10.734;2022-10-23T09:45:30;18.30;99.90
5578;DHT22;2811;51.900;10.734;2022-10-23T09:48:08;18.40;99.90
5578;DHT22;2811;51.900;10.734;2022-10-23T09:50:36;18.60;99.90
5578;DHT22;2811;51.900;10.734;2022-10-23T09:53:03;18.70;99.90
5578;DHT22;2811;51.900;10.734;2022-10-23T09:55:30;18.90;99.90
5578;DHT22;2811;51.900;10.734;2022-10-23T09:57:56;18.60;99.90
5578;DHT22;2811;51.900;10.734;2022-10-23T10:00:26;18.60;99.90
5578;DHT22;2811;51.900;10.734;2022-10-23T10:02:57;18.50;99.90
5578;DHT22;2811;51.900;10.734;2022-10-23T10:05:27;18.40;99.90
5578;DHT22;2811;51.900;10.734;2022-10-23T10:08:01;18.50;99.90
5578;DHT22;2811;51.900;10.734;2022-10-23T10:10:33;18.50;99.90
5578;DHT22;2811;51.900;10.734;2022-10-23T10:13:05;18.50;99.90
5578;DHT22;2811;51.900;10.734;2022-10-23T10:15:39;18.60;99.90
5578;DHT22;2811;51.900;10.734;2022-10-23T10:18:14;18.50;99.90
5578;DHT22;2811;51.900;10.734;2022-10-23T10:21:09;18.40;99.90
5578;DHT22;2811;51.900;10.734;2022-10-23T10:23:42;18.20;99.90
5578;DHT22;2811;51.900;10.734;2022-10-23T10:26:22;18.30;99.90
5578;DHT22;2811;51.900;10.734;2022-10-23T10:29:00;18.20;99.90
5578;DHT22;2811;51.900;10.734;2022-10-23T10:31:35;18.20;99.90
5578;DHT22;2811;51.900;10.734;2022-10-23T10:34:12;18.30;99.90
5578;DHT22;2811;51.900;10.734;2022-10-23T10:36:48;18.30;99.90
5578;DHT22;2811;51.900;10.734;2022-10-23T10:39:28;18.40;99.90
5578;DHT22;2811;51.900;10.734;2022-10-23T10:42:21;18.30;99.90
5578;DHT22;2811;51.900;10.734;2022-10-23T10:45:06;18.40;99.90
5578;DHT22;2811;51.900;10.734;2022-10-23T10:47:47;18.60;99.90
5578;DHT22;2811;51.900;10.734;2022-10-23T10:50:18;19.00;99.90
5578;DHT22;2811;51.900;10.734;2022-10-23T10:52:56;19.10;99.90
5578;DHT22;2811;51.900;10.734;2022-10-23T10:55:29;19.60;99.90
5578;DHT22;2811;51.900;10.734;2022-10-23T10:58:01;19.40;99.90
5578;DHT22;2811;51.900;10.734;2022-10-23T11:00:30;19.60;99.90
5578;DHT22;2811;51.900;10.734;2022-10-23T11:03:08;19.60;99.90
5578;DHT22;2811;51.900;10.734;2022-10-23T11:05:40;19.70;99.90
5578;DHT22;2811;51.900;10.734;2022-10-23T11:08:13;19.80;99.90
5578;DHT22;2811;51.900;10.734;2022-10-23T11:10:44;20.10;99.90
5578;DHT22;2811;51.900;10.734;2022-10-23T11:13:23;20.20;99.90
5578;DHT22;2811;51.900;10.734;2022-10-23T11:15:51;20.40;99.90
5578;DHT22;2811;51.900;10.734;2022-10-23T11:18:25;20.40;99.90
5578;DHT22;2811;51.900;10.734;2022-10-23T11:21:08;20.50;99.90
5578;DHT22;2811;51.900;10.734;2022-10-23T11:23:54;20.20;99.90
5578;DHT22;2811;51.900;10.734;2022-10-23T11:26:34;20.20;99.90
5578;DHT22;2811;51.900;10.734;2022-10-23T11:29:26;20.20;99.90
5578;DHT22;2811;51.900;10.734;2022-10-23T11:32:10;20.30;99.90
5578;DHT22;2811;51.900;10.734;2022-10-23T11:35:03;20.10;99.90
5578;DHT22;2811;51.900;10.734;2022-10-23T11:37:33;20.20;99.90
5578;DHT22;2811;51.900;10.734;2022-10-23T11:40:11;20.50;99.90
5578;DHT22;2811;51.900;10.734;2022-10-23T11:42:47;20.70;99.90
5578;DHT22;2811;51.900;10.734;2022-10-23T11:45:33;20.60;99.90
5578;DHT22;2811;51.900;10.734;2022-10-23T11:48:01;20.70;99.90
5578;DHT22;2811;51.900;10.734;2022-10-23T11:50:32;21.10;99.90
5578;DHT22;2811;51.900;10.734;2022-10-23T11:53:02;20.60;99.90
5578;DHT22;2811;51.900;10.734;2022-10-23T11:55:35;20.50;99.90
5578;DHT22;2811;51.900;10.734;2022-10-23T11:58:16;20.50;99.90
5578;DHT22;2811;51.900;10.734;2022-10-23T12:00:53;20.50;99.90
5578;DHT22;2811;51.900;10.734;2022-10-23T12:03:25;20.60;99.90
5578;DHT22;2811;51.900;10.734;2022-10-23T12:06:00;20.60;99.90
5578;DHT22;2811;51.900;10.734;2022-10-23T12:08:29;20.40;99.90
5578;DHT22;2811;51.900;10.734;2022-10-23T12:10:57;20.30;99.90
5578;DHT22;2811;51.900;10.734;2022-10-23T12:13:42;20.20;99.90
5578;DHT22;2811;51.900;10.734;2022-10-23T12:16:10;20.00;99.90
5578;DHT22;2811;51.900;10.734;2022-10-23T12:18:48;19.70;99.90
5578;DHT22;2811;51.900;10.734;2022-10-23T12:21:19;19.70;99.90
5578;DHT22;2811;51.900;10.734;2022-10-23T12:24:01;19.60;99.90
5578;DHT22;2811;51.900;10.734;2022-10-23T12:26:57;19.60;99.90
5578;DHT22;2811;51.900;10.734;2022-10-23T12:29:47;19.40;99.90
5578;DHT22;2811;51.900;10.734;2022-10-23T12:32:29;19.40;99.90
5578;DHT22;2811;51.900;10.734;2022-10-23T12:35:14;19.40;99.90
5578;DHT22;2811;51.900;10.734;2022-10-23T12:38:04;19.70;99.90
5578;DHT22;2811;51.900;10.734;2022-10-23T12:40:35;19.40;99.90
5578;DHT22;2811;51.900;10.734;2022-10-23T12:43:01;19.40;99.90
5578;DHT22;2811;51.900;10.734;2022-10-23T12:45:30;19.40;99.90
5578;DHT22;2811;51.900;10.734;2022-10-23T12:47:58;19.30;99.90
5578;DHT22;2811;51.900;10.734;2022-10-23T12:50:27;19.20;99.90
5578;DHT22;2811;51.900;10.734;2022-10-23T12:52:57;19.20;99.90
5578;DHT22;2811;51.900;10.734;2022-10-23T12:55:28;19.40;99.90
5578;DHT22;2811;51.900;10.734;2022-10-23T12:57:55;19.20;99.90
5578;DHT22;2811;51.900;10.734;2022-10-23T13:00:23;19.20;99.90
5578;DHT22;2811;51.900;10.734;2022-10-23T13:03:00;19.10;99.90
5578;DHT22;2811;51.900;10.734;2022-10-23T13:05:28;19.10;99.90
5578;DHT22;2811;51.900;10.734;2022-10-23T13:07:58;19.10;99.90
5578;DHT22;2811;51.900;10.734;2022-10-23T13:10:26;19.10;99.90
5578;DHT22;2811;51.900;10.734;2022-10-23T13:12:55;19.10;99.90
5578;DHT22;2811;51.900;10.734;2022-10-23T13:15:23;19.10;99.90
5578;DHT22;2811;51.900;10.734;2022-10-23T13:18:01;19.10;99.90
5578;DHT22;2811;51.900;10.734;2022-10-23T13:20:29;19.00;99.90
5578;DHT22;2811;51.900;10.734;2022-10-23T13:23:00;19.00;99.90
5578;DHT22;2811;51.900;10.734;2022-10-23T13:25:35;19.00;99.90
5578;DHT22;2811;51.900;10.734;2022-10-23T13:28:11;19.00;99.90
5578;DHT22;2811;51.900;10.734;2022-10-23T13:30:40;18.90;99.90
5578;DHT22;2811;51.900;10.734;2022-10-23T13:33:19;18.90;99.90
5578;DHT22;2811;51.900;10.734;2022-10-23T13:35:54;18.90;99.90
5578;DHT22;2811;51.900;10.734;2022-10-23T13:38:29;19.00;99.90
5578;DHT22;2811;51.900;10.734;2022-10-23T13:40:58;19.00;99.90
5578;DHT22;2811;51.900;10.734;2022-10-23T13:43:26;19.00;99.90
5578;DHT22;2811;51.900;10.734;2022-10-23T13:45:55;19.00;99.90
5578;DHT22;2811;51.900;10.734;2022-10-23T13:48:22;18.80;99.90
5578;DHT22;2811;51.900;10.734;2022-10-23T13:50:49;18.90;99.90
5578;DHT22;2811;51.900;10.734;2022-10-23T13:53:15;18.90;99.90
5578;DHT22;2811;51.900;10.734;2022-10-23T13:55:46;18.90;99.90
5578;DHT22;2811;51.900;10.734;2022-10-23T13:58:14;18.80;99.90
5578;DHT22;2811;51.900;10.734;2022-10-23T14:00:41;18.80;99.90
5578;DHT22;2811;51.900;10.734;2022-10-23T14:03:09;18.80;99.90
5578;DHT22;2811;51.900;10.734;2022-10-23T14:05:36;18.80;99.90
5578;DHT22;2811;51.900;10.734;2022-10-23T14:08:03;18.80;99.90
5578;DHT22;2811;51.900;10.734;2022-10-23T14:10:30;18.80;99.90
5578;DHT22;2811;51.900;10.734;2022-10-23T14:12:58;18.90;99.90
5578;DHT22;2811;51.900;10.734;2022-10-23T14:15:24;18.80;99.90
5578;DHT22;2811;51.900;10.734;2022-10-23T14:17:51;18.80;99.90
5578;DHT22;2811;51.900;10.734;2022-10-23T14:20:18;18.70;99.90
5578;DHT22;2811;51.900;10.734;2022-10-23T14:22:45;18.60;99.90
5578;DHT22;2811;51.900;10.734;2022-10-23T14:25:12;18.70;99.90
5578;DHT22;2811;51.900;10.734;2022-10-23T14:27:38;18.60;99.90
5578;DHT22;2811;51.900;10.734;2022-10-23T14:30:08;18.50;99.90
5578;DHT22;2811;51.900;10.734;2022-10-23T14:32:35;18.50;99.90
5578;DHT22;2811;51.900;10.734;2022-10-23T14:35:02;18.40;99.90
5578;DHT22;2811;51.900;10.734;2022-10-23T14:37:29;18.40;99.90
5578;DHT22;2811;51.900;10.734;2022-10-23T14:39:56;18.40;99.90
5578;DHT22;2811;51.900;10.734;2022-10-23T14:42:23;18.30;99.90
5578;DHT22;2811;51.900;10.734;2022-10-23T14:44:50;18.30;99.90
5578;DHT22;2811;51.900;10.734;2022-10-23T14:47:18;18.30;99.90
5578;DHT22;2811;51.900;10.734;2022-10-23T14:49:47;18.30;99.90
5578;DHT22;2811;51.900;10.734;2022-10-23T14:52:17;18.30;99.90
5578;DHT22;2811;51.900;10.734;2022-10-23T14:54:44;18.30;99.90
5578;DHT22;2811;51.900;10.734;2022-10-23T14:57:11;18.20;99.90
5578;DHT22;2811;51.900;10.734;2022-10-23T14:59:41;18.20;99.90
5578;DHT22;2811;51.900;10.734;2022-10-23T15:02:09;18.10;99.90
5578;DHT22;2811;51.900;10.734;2022-10-23T15:04:37;18.10;99.90
5578;DHT22;2811;51.900;10.734;2022-10-23T15:07:04;18.00;99.90
5578;DHT22;2811;51.900;10.734;2022-10-23T15:09:31;18.40;99.90
5578;DHT22;2811;51.900;10.734;2022-10-23T15:11:59;18.10;99.90
5578;DHT22;2811;51.900;10.734;2022-10-23T15:14:26;18.00;99.90
5578;DHT22;2811;51.900;10.734;2022-10-23T15:16:53;18.00;99.90
5578;DHT22;2811;51.900;10.734;2022-10-23T15:19:20;17.90;99.90
5578;DHT22;2811;51.900;10.734;2022-10-23T15:21:49;17.80;99.90
5578;DHT22;2811;51.900;10.734;2022-10-23T15:24:16;17.90;99.90
5578;DHT22;2811;51.900;10.734;2022-10-23T15:26:45;17.90;99.90
5578;DHT22;2811;51.900;10.734;2022-10-23T15:29:13;18.00;99.90
5578;DHT22;2811;51.900;10.734;2022-10-23T15:31:46;18.00;99.90
5578;DHT22;2811;51.900;10.734;2022-10-23T15:34:16;18.00;99.90
5578;DHT22;2811;51.900;10.734;2022-10-23T15:36:44;18.00;99.90
5578;DHT22;2811;51.900;10.734;2022-10-23T15:39:15;18.00;99.90
5578;DHT22;2811;51.900;10.734;2022-10-23T15:41:42;18.00;99.90
5578;DHT22;2811;51.900;10.734;2022-10-23T15:44:12;18.00;99.90
5578;DHT22;2811;51.900;10.734;2022-10-23T15:46:39;18.00;99.90
5578;DHT22;2811;51.900;10.734;2022-10-23T15:49:06;18.10;99.90
5578;DHT22;2811;51.900;10.734;2022-10-23T15:51:34;17.90;99.90
5578;DHT22;2811;51.900;10.734;2022-10-23T15:54:02;17.90;99.90
5578;DHT22;2811;51.900;10.734;2022-10-23T15:56:30;17.80;99.90
5578;DHT22;2811;51.900;10.734;2022-10-23T15:58:57;17.80;99.90
5578;DHT22;2811;51.900;10.734;2022-10-23T16:01:24;18.20;99.90
5578;DHT22;2811;51.900;10.734;2022-10-23T16:03:51;17.70;99.90
5578;DHT22;2811;51.900;10.734;2022-10-23T16:06:19;17.70;99.90
5578;DHT22;2811;51.900;10.734;2022-10-23T16:08:46;17.70;99.90